Time;durP1;ratioP1;P1;durP2;ratioP2;P2;SDS_P1;SDS_P2;PMS_P1;PMS_P2;Temp;Humidity;BMP_temperature;BMP_pressure;BME280_temperature;BME280_humidity;BME280_pressure;Samples;Min_cycle;Max_cycle;Signal;HPM_P1;HPM_P2
2021/05/19 00:02:07;;;;;;;0.20;0.20;;;10.20;99.90;;;;;;5053567;28;20191;-80
2021/05/19 00:04:33;;;;;;;0.40;0.40;;;10.20;99.90;;;;;;5053945;28;20214;-79
2021/05/19 00:06:59;;;;;;;0.10;0.10;;;10.20;99.90;;;;;;5054203;28;20207;-81
2021/05/19 00:09:24;;;;;;;0.13;0.13;;;10.20;99.90;;;;;;5056461;28;20192;-80
2021/05/19 00:11:50;;;;;;;0.10;0.10;;;10.20;99.90;;;;;;5055230;28;20189;-80
2021/05/19 00:14:17;;;;;;;0.10;0.10;;;10.10;99.90;;;;;;5054221;28;20274;-80
2021/05/19 00:16:45;;;;;;;0.20;0.20;;;10.00;99.90;;;;;;5053346;28;20291;-81
2021/05/19 00:19:10;;;;;;;0.10;0.10;;;10.00;99.90;;;;;;5051856;28;20181;-81
2021/05/19 00:21:36;;;;;;;0.10;0.10;;;10.00;99.90;;;;;;5056567;28;20212;-80
2021/05/19 00:24:07;;;;;;;0.47;0.30;;;9.90;99.90;;;;;;5043606;28;20268;-80
2021/05/19 00:26:33;;;;;;;0.10;0.10;;;9.90;99.90;;;;;;5043495;28;20220;-80
2021/05/19 00:28:58;;;;;;;0.10;0.10;;;9.90;99.90;;;;;;5049065;28;20570;-80
2021/05/19 00:31:26;;;;;;;0.00;0.00;;;9.90;99.90;;;;;;5054643;28;20212;-80
2021/05/19 00:33:52;;;;;;;0.17;0.17;;;9.80;99.90;;;;;;5052668;28;20231;-79
2021/05/19 00:36:18;;;;;;;0.10;0.10;;;9.70;99.90;;;;;;5056071;28;20205;-81
2021/05/19 00:38:44;;;;;;;0.10;0.10;;;9.80;99.90;;;;;;5047549;28;20206;-80
2021/05/19 00:41:12;;;;;;;0.17;0.17;;;9.80;99.90;;;;;;5055532;28;20175;-80
2021/05/19 00:43:38;;;;;;;0.30;0.30;;;9.80;99.90;;;;;;5053414;28;20213;-81
2021/05/19 00:46:05;;;;;;;0.03;0.03;;;9.80;99.90;;;;;;5054106;28;20248;-83
2021/05/19 00:48:30;;;;;;;0.10;0.10;;;9.80;99.90;;;;;;5053084;28;20181;-80
2021/05/19 00:50:56;;;;;;;1.40;0.30;;;9.80;99.90;;;;;;5055036;28;20205;-80
2021/05/19 00:53:21;;;;;;;0.13;0.13;;;9.70;99.90;;;;;;5053168;28;20183;-80
2021/05/19 00:55:47;;;;;;;0.10;0.10;;;9.70;99.90;;;;;;5055037;28;20652;-79
2021/05/19 00:58:13;;;;;;;0.10;0.10;;;9.70;99.90;;;;;;5053354;28;20723;-79
2021/05/19 01:00:39;;;;;;;0.10;0.10;;;9.60;99.90;;;;;;5055151;28;20191;-79
2021/05/19 01:03:06;;;;;;;0.10;0.10;;;9.60;99.90;;;;;;5055167;28;20265;-80
2021/05/19 01:05:40;;;;;;;0.10;0.10;;;9.50;99.90;;;;;;5067315;28;20185;-80
2021/05/19 01:10:51;;;;;;;0.10;0.10;;;9.50;99.90;;;;;;5057532;28;20197;-79
2021/05/19 01:13:17;;;;;;;0.10;0.10;;;9.50;99.90;;;;;;5054632;28;20271;-79
2021/05/19 01:15:43;;;;;;;0.90;0.20;;;9.60;99.90;;;;;;5053667;28;20777;-79
2021/05/19 01:18:09;;;;;;;0.10;0.10;;;9.50;99.90;;;;;;5040923;28;20696;-80
2021/05/19 01:20:35;;;;;;;0.03;0.03;;;9.50;99.90;;;;;;5052276;28;20178;-79
2021/05/19 01:23:03;;;;;;;0.10;0.10;;;9.40;99.90;;;;;;5051631;28;20652;-79
2021/05/19 01:25:28;;;;;;;0.10;0.10;;;9.50;99.90;;;;;;5046273;28;20183;-81
2021/05/19 01:27:57;;;;;;;0.10;0.10;;;9.40;99.90;;;;;;5054118;28;20643;-80
2021/05/19 01:30:24;;;;;;;0.00;0.00;;;9.40;99.90;;;;;;5047616;28;20627;-80
2021/05/19 01:32:49;;;;;;;0.10;0.10;;;9.40;99.90;;;;;;5053998;28;20195;-79
2021/05/19 01:35:16;;;;;;;0.10;0.10;;;9.40;99.90;;;;;;5052360;28;20178;-79
2021/05/19 01:37:45;;;;;;;0.10;0.10;;;9.20;99.90;;;;;;5048030;28;20337;-79
2021/05/19 01:40:13;;;;;;;0.20;0.20;;;9.30;99.90;;;;;;5053694;28;20200;-80
2021/05/19 01:42:44;;;;;;;0.10;0.10;;;9.20;99.90;;;;;;5054104;28;20294;-80
2021/05/19 01:45:11;;;;;;;0.07;0.07;;;9.30;99.90;;;;;;5048951;28;20189;-80
2021/05/19 01:47:41;;;;;;;0.10;0.10;;;9.40;99.90;;;;;;5046507;28;20201;-80
2021/05/19 01:50:12;;;;;;;0.10;0.10;;;9.40;99.90;;;;;;5045581;28;20186;-80
2021/05/19 01:52:38;;;;;;;0.10;0.10;;;9.40;99.90;;;;;;5053099;28;20231;-79
2021/05/19 01:55:08;;;;;;;0.10;0.10;;;9.40;99.90;;;;;;5052561;28;20210;-80
2021/05/19 01:57:34;;;;;;;0.10;0.10;;;9.40;99.90;;;;;;5053013;28;20702;-80
2021/05/19 02:00:02;;;;;;;0.10;0.10;;;9.40;99.90;;;;;;5048431;28;20215;-80
2021/05/19 02:02:28;;;;;;;0.10;0.10;;;9.40;99.90;;;;;;5052401;28;20237;-78
2021/05/19 02:04:54;;;;;;;0.20;0.20;;;9.40;99.90;;;;;;5050887;28;20215;-81
2021/05/19 02:07:20;;;;;;;0.03;0.03;;;9.40;99.90;;;;;;5053677;28;20193;-80
2021/05/19 02:09:46;;;;;;;0.10;0.10;;;9.40;99.90;;;;;;5053152;28;20664;-80
2021/05/19 02:12:12;;;;;;;0.20;0.20;;;9.20;99.90;;;;;;5052939;28;20206;-80
2021/05/19 02:14:37;;;;;;;0.10;0.10;;;8.90;99.90;;;;;;5039909;28;20193;-81
2021/05/19 02:17:03;;;;;;;0.20;0.20;;;8.60;99.90;;;;;;5052975;28;20702;-80
2021/05/19 02:19:29;;;;;;;0.10;0.10;;;8.50;99.90;;;;;;5049085;28;20237;-80
2021/05/19 02:21:54;;;;;;;0.20;0.20;;;8.30;99.90;;;;;;5052874;28;20202;-80
2021/05/19 02:24:20;;;;;;;0.17;0.10;;;8.20;99.90;;;;;;5044008;28;20684;-81
2021/05/19 02:26:46;;;;;;;0.10;0.10;;;8.10;99.90;;;;;;5051816;28;20207;-80
2021/05/19 02:29:14;;;;;;;0.10;0.10;;;8.10;99.90;;;;;;5046617;28;20733;-80
2021/05/19 02:31:40;;;;;;;1.30;0.20;;;8.10;99.90;;;;;;5049678;28;20185;-80
2021/05/19 02:34:06;;;;;;;0.03;0.03;;;8.20;99.90;;;;;;5040805;28;20182;-80
2021/05/19 02:36:32;;;;;;;0.10;0.10;;;8.40;99.90;;;;;;5051386;28;20218;-80
2021/05/19 02:38:58;;;;;;;0.00;0.00;;;8.50;99.90;;;;;;5046916;28;20182;-80
2021/05/19 02:41:24;;;;;;;0.00;0.00;;;8.50;99.90;;;;;;5044353;28;20195;-80
2021/05/19 02:43:50;;;;;;;0.30;0.30;;;8.60;99.90;;;;;;5050120;28;20773;-80
2021/05/19 02:46:16;;;;;;;0.10;0.10;;;8.70;99.90;;;;;;5050940;28;20243;-80
2021/05/19 02:48:42;;;;;;;0.10;0.10;;;8.70;99.90;;;;;;5046009;28;20196;-80
2021/05/19 02:51:09;;;;;;;0.20;0.20;;;8.80;99.90;;;;;;5051028;28;20177;-80
2021/05/19 02:53:35;;;;;;;0.20;0.20;;;8.90;99.90;;;;;;5050318;28;20177;-80
2021/05/19 02:56:03;;;;;;;0.10;0.10;;;8.90;99.90;;;;;;5043175;28;20195;-81
2021/05/19 02:58:28;;;;;;;0.10;0.10;;;8.70;99.90;;;;;;5051092;28;20192;-80
2021/05/19 03:00:54;;;;;;;0.50;0.20;;;8.60;99.90;;;;;;5051090;28;20187;-80
2021/05/19 03:03:20;;;;;;;0.10;0.10;;;8.50;99.90;;;;;;5052612;28;20202;-80
2021/05/19 03:05:45;;;;;;;0.10;0.10;;;8.50;99.90;;;;;;5061907;28;20268;-80
2021/05/19 03:08:11;;;;;;;0.10;0.10;;;8.70;99.90;;;;;;5044361;28;20676;-80
2021/05/19 03:10:36;;;;;;;0.10;0.10;;;8.80;99.90;;;;;;5054227;28;20683;-80
2021/05/19 03:13:03;;;;;;;0.10;0.10;;;8.60;99.90;;;;;;5050083;28;20187;-80
2021/05/19 03:15:29;;;;;;;0.10;0.10;;;8.40;99.90;;;;;;5052344;28;20547;-80
2021/05/19 03:17:55;;;;;;;0.10;0.10;;;8.50;99.90;;;;;;5045315;28;20207;-80
2021/05/19 03:20:20;;;;;;;0.10;0.10;;;8.70;99.90;;;;;;5050939;28;20211;-80
2021/05/19 03:22:46;;;;;;;0.10;0.10;;;8.70;99.90;;;;;;5042402;28;20210;-80
2021/05/19 03:25:12;;;;;;;0.50;0.50;;;8.70;99.90;;;;;;5052165;28;20216;-80
2021/05/19 03:27:38;;;;;;;0.00;0.00;;;8.90;99.90;;;;;;5048118;28;20205;-80
2021/05/19 03:30:07;;;;;;;0.37;0.37;;;9.00;99.90;;;;;;5051406;28;20188;-80
2021/05/19 03:32:33;;;;;;;0.10;0.10;;;9.10;99.90;;;;;;5045874;28;20719;-79
2021/05/19 03:34:58;;;;;;;0.10;0.10;;;9.20;99.90;;;;;;5049681;28;20278;-79
2021/05/19 03:37:24;;;;;;;0.10;0.10;;;9.30;99.90;;;;;;5048950;28;20302;-80
2021/05/19 03:39:50;;;;;;;0.10;0.10;;;9.40;99.90;;;;;;5050954;28;20283;-80
2021/05/19 03:42:16;;;;;;;0.17;0.17;;;9.50;99.90;;;;;;5047545;28;20232;-81
2021/05/19 03:44:41;;;;;;;0.20;0.20;;;9.70;99.90;;;;;;5039317;28;20201;-80
2021/05/19 03:47:07;;;;;;;0.20;0.20;;;9.80;99.90;;;;;;5049406;28;20207;-80
2021/05/19 03:49:37;;;;;;;0.10;0.10;;;9.70;99.90;;;;;;5046316;28;20263;-83
2021/05/19 03:52:03;;;;;;;0.10;0.10;;;9.70;99.90;;;;;;5045974;28;20212;-84
2021/05/19 03:54:31;;;;;;;0.20;0.20;;;9.90;99.90;;;;;;5044133;28;20213;-81
2021/05/19 03:56:57;;;;;;;0.10;0.10;;;10.00;99.90;;;;;;5038989;28;20214;-81
2021/05/19 03:59:23;;;;;;;0.10;0.10;;;9.60;99.90;;;;;;5047898;28;20196;-81
2021/05/19 04:01:48;;;;;;;0.10;0.10;;;9.50;99.90;;;;;;5047547;28;20263;-81
2021/05/19 04:04:14;;;;;;;0.20;0.20;;;9.60;99.90;;;;;;5055203;28;20249;-81
2021/05/19 04:06:39;;;;;;;0.37;0.37;;;9.70;99.90;;;;;;5043338;28;20216;-81
2021/05/19 04:09:06;;;;;;;0.10;0.10;;;9.70;99.90;;;;;;5050131;28;20227;-81
2021/05/19 04:11:32;;;;;;;0.10;0.10;;;9.90;99.90;;;;;;5051354;28;20187;-80
2021/05/19 04:13:58;;;;;;;0.10;0.10;;;9.90;99.90;;;;;;5044656;28;20627;-80
2021/05/19 04:16:23;;;;;;;0.80;0.20;;;10.00;99.90;;;;;;5038650;28;20222;-81
2021/05/19 04:18:49;;;;;;;0.00;0.00;;;10.10;99.90;;;;;;5036310;28;20185;-81
2021/05/19 04:21:15;;;;;;;0.20;0.20;;;10.20;99.90;;;;;;5064295;28;20198;-81
2021/05/19 04:23:40;;;;;;;0.20;0.20;;;10.20;99.90;;;;;;5040806;28;20222;-81
2021/05/19 04:26:08;;;;;;;0.27;0.27;;;10.30;99.90;;;;;;5049808;28;20188;-80
2021/05/19 04:28:33;;;;;;;0.17;0.17;;;10.20;99.90;;;;;;5049136;28;20172;-81
2021/05/19 04:30:59;;;;;;;0.20;0.20;;;10.30;99.90;;;;;;5049248;28;20539;-81
2021/05/19 04:33:24;;;;;;;0.20;0.20;;;10.30;99.90;;;;;;5049473;28;20189;-81
2021/05/19 04:35:50;;;;;;;0.23;0.23;;;10.30;99.90;;;;;;5040597;28;20268;-79
2021/05/19 04:38:16;;;;;;;0.50;0.50;;;10.40;99.90;;;;;;5047081;28;20213;-81
2021/05/19 04:40:42;;;;;;;0.40;0.13;;;10.30;99.90;;;;;;5049279;28;20829;-81
2021/05/19 04:43:09;;;;;;;0.33;0.33;;;10.30;99.90;;;;;;5051284;28;20292;-80
2021/05/19 04:45:36;;;;;;;0.10;0.10;;;10.30;99.90;;;;;;5051044;28;20182;-81
2021/05/19 04:48:02;;;;;;;0.23;0.23;;;10.30;99.90;;;;;;5051061;28;20575;-81
2021/05/19 04:50:28;;;;;;;0.10;0.10;;;10.30;99.90;;;;;;5049835;28;20541;-81
2021/05/19 04:52:53;;;;;;;0.10;0.10;;;10.30;99.90;;;;;;5052944;28;20187;-81
2021/05/19 04:55:19;;;;;;;0.23;0.20;;;10.30;99.90;;;;;;5051571;28;20682;-81
2021/05/19 04:57:45;;;;;;;0.30;0.30;;;10.30;99.90;;;;;;5053258;28;20573;-81
2021/05/19 05:00:11;;;;;;;0.20;0.20;;;10.20;99.90;;;;;;5050960;28;20297;-81
2021/05/19 05:02:37;;;;;;;0.20;0.20;;;10.30;99.90;;;;;;5052397;28;20201;-79
2021/05/19 05:05:10;;;;;;;0.00;0.00;;;10.30;99.90;;;;;;5049538;28;20679;-81
2021/05/19 05:07:36;;;;;;;0.17;0.17;;;10.30;99.90;;;;;;5045051;28;20201;-80
2021/05/19 05:10:04;;;;;;;0.20;0.20;;;10.30;99.90;;;;;;5055349;28;20184;-80
2021/05/19 05:12:30;;;;;;;0.23;0.23;;;10.30;99.90;;;;;;5045594;28;20581;-80
2021/05/19 05:14:55;;;;;;;0.30;0.30;;;10.30;99.90;;;;;;5052407;28;20198;-80
2021/05/19 05:17:21;;;;;;;0.20;0.20;;;10.20;99.90;;;;;;5051286;28;20212;-81
2021/05/19 05:19:48;;;;;;;0.30;0.30;;;10.20;99.90;;;;;;5051824;28;20196;-84
2021/05/19 05:22:13;;;;;;;0.27;0.27;;;10.30;99.90;;;;;;5051138;28;20206;-82
2021/05/19 05:24:39;;;;;;;0.43;0.43;;;10.30;99.90;;;;;;5049188;28;20189;-84
2021/05/19 05:27:05;;;;;;;0.20;0.17;;;10.60;99.90;;;;;;5051328;28;20201;-80
2021/05/19 05:29:31;;;;;;;0.10;0.10;;;10.80;99.90;;;;;;5050366;28;20177;-80
2021/05/19 05:31:57;;;;;;;0.10;0.10;;;11.00;99.90;;;;;;5047441;28;20243;-81
2021/05/19 05:34:23;;;;;;;0.47;0.20;;;11.20;99.90;;;;;;5052261;28;20763;-80
2021/05/19 05:36:49;;;;;;;0.13;0.13;;;11.20;99.90;;;;;;5051097;28;20286;-80
2021/05/19 05:39:15;;;;;;;0.93;0.40;;;11.10;99.90;;;;;;5052807;28;20199;-80
2021/05/19 05:41:40;;;;;;;7.00;1.50;;;11.20;99.90;;;;;;5047075;28;20185;-80
2021/05/19 05:44:06;;;;;;;0.10;0.10;;;11.20;99.90;;;;;;5051045;28;20336;-82
2021/05/19 05:46:32;;;;;;;0.10;0.10;;;11.40;99.90;;;;;;5049330;28;20206;-83
2021/05/19 05:48:58;;;;;;;0.33;0.33;;;11.40;99.90;;;;;;5050970;28;20182;-83
2021/05/19 05:51:24;;;;;;;0.10;0.10;;;11.40;99.90;;;;;;5047511;28;20179;-81
2021/05/19 05:53:50;;;;;;;0.63;0.63;;;11.30;99.90;;;;;;5052549;28;20182;-80
2021/05/19 05:56:16;;;;;;;0.20;0.20;;;11.20;99.90;;;;;;5052595;28;20181;-80
2021/05/19 05:58:41;;;;;;;0.20;0.20;;;11.30;99.90;;;;;;5051060;28;20195;-81
2021/05/19 06:01:09;;;;;;;0.57;0.20;;;11.20;99.90;;;;;;5047942;28;20204;-81
2021/05/19 06:03:35;;;;;;;0.97;0.97;;;11.10;99.90;;;;;;5052361;28;20208;-81
2021/05/19 06:06:01;;;;;;;0.30;0.30;;;11.10;99.90;;;;;;5053020;28;20589;-81
2021/05/19 06:08:26;;;;;;;0.20;0.20;;;11.10;99.90;;;;;;5055697;28;20210;-81
2021/05/19 06:10:52;;;;;;;0.17;0.17;;;11.10;99.90;;;;;;5049554;28;20221;-82
2021/05/19 06:13:18;;;;;;;0.87;0.87;;;11.10;99.90;;;;;;5046213;28;20188;-81
2021/05/19 06:15:43;;;;;;;0.27;0.27;;;11.10;99.90;;;;;;5045433;28;20550;-81
2021/05/19 06:18:09;;;;;;;0.27;0.27;;;11.10;99.90;;;;;;5044125;28;20292;-81
2021/05/19 06:20:34;;;;;;;0.33;0.33;;;11.20;99.90;;;;;;5046243;28;20657;-79
2021/05/19 06:23:00;;;;;;;0.20;0.20;;;11.40;99.90;;;;;;5045512;28;20270;-79
2021/05/19 06:25:26;;;;;;;0.10;0.10;;;11.70;99.90;;;;;;5065025;28;20192;-81
2021/05/19 06:27:52;;;;;;;2.83;0.40;;;12.00;99.90;;;;;;5047993;28;20207;-81
2021/05/19 06:30:18;;;;;;;0.10;0.10;;;12.20;99.90;;;;;;5048740;28;20560;-81
2021/05/19 06:32:44;;;;;;;0.10;0.10;;;12.40;99.90;;;;;;5056515;28;20189;-81
2021/05/19 06:35:09;;;;;;;0.73;0.20;;;12.70;99.90;;;;;;5046556;28;20185;-80
2021/05/19 06:37:35;;;;;;;0.10;0.10;;;12.90;99.90;;;;;;5052762;28;20213;-81
2021/05/19 06:40:00;;;;;;;0.13;0.13;;;13.00;99.90;;;;;;5045516;28;20190;-82
2021/05/19 06:42:26;;;;;;;0.10;0.10;;;13.20;99.90;;;;;;5047672;28;20181;-81
2021/05/19 06:44:52;;;;;;;0.20;0.20;;;13.30;99.90;;;;;;5045943;28;20190;-79
2021/05/19 06:47:18;;;;;;;0.10;0.10;;;13.30;99.90;;;;;;5050651;28;20223;-81
2021/05/19 06:49:43;;;;;;;0.20;0.20;;;13.40;99.90;;;;;;5047889;28;20179;-81
2021/05/19 06:52:09;;;;;;;0.20;0.20;;;13.40;99.90;;;;;;5048596;28;22038;-81
2021/05/19 06:54:34;;;;;;;0.77;0.30;;;13.40;99.90;;;;;;5048280;28;20174;-81
2021/05/19 06:57:00;;;;;;;0.13;0.13;;;13.30;99.90;;;;;;5047769;28;20240;-81
2021/05/19 06:59:25;;;;;;;0.10;0.10;;;13.40;99.90;;;;;;5050676;28;20178;-81
2021/05/19 07:01:51;;;;;;;0.17;0.17;;;13.60;99.90;;;;;;5044258;28;20792;-83
2021/05/19 07:04:19;;;;;;;0.20;0.20;;;13.50;99.90;;;;;;5061303;28;20223;-82
2021/05/19 07:06:45;;;;;;;0.20;0.20;;;13.50;99.90;;;;;;5055820;28;20193;-82
2021/05/19 07:09:10;;;;;;;0.50;0.50;;;13.50;99.90;;;;;;5052734;28;20196;-83
2021/05/19 07:11:36;;;;;;;0.10;0.10;;;13.50;99.90;;;;;;5054318;28;20182;-80
2021/05/19 07:14:03;;;;;;;0.10;0.10;;;13.60;99.90;;;;;;5051021;28;20259;-82
2021/05/19 07:16:31;;;;;;;0.20;0.20;;;13.80;99.90;;;;;;5052698;28;20205;-82
2021/05/19 07:18:57;;;;;;;0.17;0.17;;;13.90;99.90;;;;;;5052445;28;20191;-82
2021/05/19 07:21:24;;;;;;;0.30;0.30;;;13.90;99.90;;;;;;5052221;28;20198;-81
2021/05/19 07:23:51;;;;;;;0.20;0.20;;;14.00;99.90;;;;;;5049779;28;20315;-80
2021/05/19 07:26:17;;;;;;;0.20;0.20;;;14.10;99.90;;;;;;5050981;28;20219;-81
2021/05/19 07:28:43;;;;;;;0.17;0.17;;;14.20;99.90;;;;;;5050557;28;20201;-82
2021/05/19 07:31:09;;;;;;;0.10;0.10;;;14.40;99.90;;;;;;5048022;28;20188;-81
2021/05/19 07:33:35;;;;;;;0.37;0.37;;;14.60;99.90;;;;;;5048939;28;20270;-80
2021/05/19 07:36:00;;;;;;;0.13;0.13;;;14.60;99.90;;;;;;5050473;28;20582;-80
2021/05/19 07:38:26;;;;;;;0.20;0.20;;;14.80;99.90;;;;;;5047921;28;20623;-81
2021/05/19 07:40:52;;;;;;;0.30;0.30;;;14.80;99.90;;;;;;5047262;28;20753;-81
2021/05/19 07:43:18;;;;;;;0.20;0.20;;;14.90;99.90;;;;;;5048783;28;20271;-82
2021/05/19 07:45:44;;;;;;;0.20;0.20;;;15.40;99.90;;;;;;5049611;28;20191;-82
2021/05/19 07:48:10;;;;;;;0.20;0.20;;;15.90;99.90;;;;;;5049297;28;20297;-82
2021/05/19 07:50:37;;;;;;;0.10;0.10;;;16.40;99.90;;;;;;5042573;28;20198;-83
2021/05/19 07:53:04;;;;;;;0.27;0.27;;;16.70;99.90;;;;;;5050759;28;20195;-82
2021/05/19 07:55:56;;;;;;;0.80;0.50;;;16.80;99.90;;;;;;5048499;28;20239;-82
2021/05/19 07:58:30;;;;;;;0.60;0.60;;;17.20;99.90;;;;;;5049742;28;20575;-83
2021/05/19 08:03:21;;;;;;;0.90;0.50;;;17.00;99.90;;;;;;5049392;28;20341;-83
2021/05/19 08:05:47;;;;;;;0.27;0.27;;;17.00;99.90;;;;;;5038987;28;20214;-82
2021/05/19 08:08:12;;;;;;;0.17;0.17;;;17.10;99.90;;;;;;5048575;28;20200;-83
2021/05/19 08:10:40;;;;;;;0.30;0.30;;;17.10;99.90;;;;;;5044544;28;20339;-83
2021/05/19 08:13:06;;;;;;;0.20;0.20;;;16.70;99.90;;;;;;5038091;28;20196;-84
2021/05/19 08:15:32;;;;;;;0.40;0.40;;;16.70;99.90;;;;;;5050065;28;20196;-80
2021/05/19 08:17:57;;;;;;;0.20;0.20;;;16.80;99.90;;;;;;5054083;28;20306;-81
2021/05/19 08:20:23;;;;;;;0.30;0.20;;;16.90;99.90;;;;;;5050990;28;20188;-80
2021/05/19 08:22:49;;;;;;;0.77;0.77;;;16.90;99.90;;;;;;5055302;28;20203;-80
2021/05/19 08:25:15;;;;;;;0.30;0.30;;;16.90;99.90;;;;;;5052389;28;20181;-80
2021/05/19 08:27:41;;;;;;;0.30;0.30;;;17.10;99.90;;;;;;5053889;28;20580;-79
2021/05/19 08:30:09;;;;;;;0.50;0.50;;;17.10;99.90;;;;;;5043648;28;20192;-80
2021/05/19 08:32:36;;;;;;;0.30;0.30;;;17.00;99.90;;;;;;5047129;28;20229;-80
2021/05/19 08:35:02;;;;;;;0.37;0.37;;;17.20;99.90;;;;;;5052053;28;20236;-79
2021/05/19 08:37:27;;;;;;;0.37;0.37;;;17.00;99.90;;;;;;5049410;28;20207;-79
2021/05/19 08:39:53;;;;;;;0.53;0.40;;;17.10;99.90;;;;;;5051866;28;20197;-79
2021/05/19 08:42:18;;;;;;;0.23;0.23;;;17.20;99.90;;;;;;5052574;28;20193;-79
2021/05/19 08:44:44;;;;;;;0.80;0.73;;;17.00;99.90;;;;;;5050467;28;20186;-80
2021/05/19 08:47:11;;;;;;;0.17;0.17;;;17.20;99.90;;;;;;5054615;28;20207;-82
2021/05/19 08:49:39;;;;;;;0.20;0.20;;;17.10;99.90;;;;;;5054339;28;20665;-81
2021/05/19 08:52:05;;;;;;;0.63;0.63;;;17.50;99.90;;;;;;5052996;28;20215;-82
2021/05/19 08:54:31;;;;;;;0.63;0.63;;;17.80;99.90;;;;;;5051555;28;20285;-81
2021/05/19 08:56:57;;;;;;;0.53;0.40;;;18.10;99.90;;;;;;5052093;28;20212;-82
2021/05/19 08:59:22;;;;;;;0.30;0.30;;;17.90;99.90;;;;;;5048906;28;20323;-83
2021/05/19 09:01:52;;;;;;;0.17;0.17;;;17.90;99.90;;;;;;5051724;28;20201;-80
2021/05/19 09:04:23;;;;;;;1.03;0.77;;;17.90;99.90;;;;;;5058059;28;20680;-80
2021/05/19 09:06:58;;;;;;;0.40;0.40;;;18.10;99.90;;;;;;5053924;28;20209;-79
2021/05/19 09:09:34;;;;;;;0.67;0.30;;;18.40;99.90;;;;;;5049370;28;20189;-80
2021/05/19 09:12:10;;;;;;;0.27;0.20;;;18.30;99.90;;;;;;5053968;28;20181;-81
2021/05/19 09:14:40;;;;;;;0.10;0.10;;;18.30;99.90;;;;;;5052716;28;20565;-81
2021/05/19 09:17:25;;;;;;;0.23;0.23;;;18.20;99.90;;;;;;5052371;28;20213;-79
2021/05/19 09:19:57;;;;;;;0.10;0.10;;;18.30;99.90;;;;;;5050637;28;20223;-80
2021/05/19 09:22:24;;;;;;;0.30;0.30;;;18.60;99.90;;;;;;5043395;28;20205;-81
2021/05/19 09:24:52;;;;;;;0.10;0.10;;;18.80;99.90;;;;;;5056059;28;20650;-80
2021/05/19 09:27:19;;;;;;;0.40;0.30;;;18.90;99.90;;;;;;5054773;28;20198;-80
2021/05/19 09:29:49;;;;;;;0.20;0.20;;;18.90;99.90;;;;;;5069607;28;20194;-81
2021/05/19 09:32:16;;;;;;;0.10;0.10;;;18.70;99.90;;;;;;5051726;28;20272;-79
2021/05/19 09:34:45;;;;;;;0.10;0.10;;;18.60;99.90;;;;;;5051651;28;20190;-79
2021/05/19 09:37:15;;;;;;;0.27;0.27;;;18.60;99.90;;;;;;5049098;28;20216;-78
2021/05/19 09:39:44;;;;;;;0.63;0.30;;;18.60;99.90;;;;;;5050636;28;20184;-79
2021/05/19 09:42:10;;;;;;;0.30;0.30;;;18.70;99.90;;;;;;5051210;28;20212;-79
2021/05/19 09:44:36;;;;;;;0.53;0.30;;;18.70;99.90;;;;;;5051258;28;20681;-78
2021/05/19 09:47:02;;;;;;;0.20;0.20;;;18.90;99.90;;;;;;5051444;28;20623;-79
2021/05/19 09:49:28;;;;;;;0.10;0.10;;;18.90;99.90;;;;;;5045433;28;20179;-80
2021/05/19 09:51:57;;;;;;;0.10;0.10;;;18.90;99.90;;;;;;5053608;28;20178;-79
2021/05/19 09:54:24;;;;;;;0.10;0.10;;;18.70;99.90;;;;;;5046931;28;20193;-79
2021/05/19 09:56:54;;;;;;;0.20;0.20;;;18.20;99.90;;;;;;5053274;28;20569;-79
2021/05/19 09:59:21;;;;;;;0.20;0.20;;;18.20;99.90;;;;;;5045150;28;20193;-79
2021/05/19 10:01:47;;;;;;;0.10;0.10;;;18.20;99.90;;;;;;5049430;28;20189;-79
2021/05/19 10:04:13;;;;;;;0.77;0.77;;;18.40;99.90;;;;;;5050684;28;20224;-79
2021/05/19 10:06:40;;;;;;;0.10;0.10;;;18.50;99.90;;;;;;5046001;28;20232;-79
2021/05/19 10:09:06;;;;;;;0.10;0.10;;;18.90;99.90;;;;;;5046679;28;20187;-80
2021/05/19 10:11:32;;;;;;;0.10;0.10;;;18.60;99.90;;;;;;5056524;28;20669;-80
2021/05/19 10:13:59;;;;;;;0.10;0.10;;;18.50;99.90;;;;;;5060568;28;20264;-79
2021/05/19 10:16:25;;;;;;;0.20;0.20;;;18.70;99.90;;;;;;5057888;28;20205;-79
2021/05/19 10:18:54;;;;;;;4.53;0.30;;;18.40;99.90;;;;;;5054564;28;20555;-79
2021/05/19 10:21:21;;;;;;;0.20;0.10;;;18.00;99.90;;;;;;5054615;28;20193;-81
2021/05/19 10:24:13;;;;;;;0.20;0.20;;;17.70;99.90;;;;;;5055088;28;20763;-79
2021/05/19 10:27:06;;;;;;;0.10;0.10;;;17.80;99.90;;;;;;5051837;28;20225;-81
2021/05/19 10:29:47;;;;;;;0.20;0.20;;;18.20;99.90;;;;;;5052444;28;20170;-81
2021/05/19 10:32:22;;;;;;;0.10;0.10;;;18.20;99.90;;;;;;5052140;28;20180;-81
2021/05/19 10:34:56;;;;;;;0.17;0.17;;;18.30;99.90;;;;;;5047891;28;20569;-81
2021/05/19 10:37:28;;;;;;;0.10;0.10;;;18.40;99.90;;;;;;5050975;28;20267;-80
2021/05/19 10:40:13;;;;;;;0.30;0.30;;;18.50;99.90;;;;;;5054095;28;20177;-79
2021/05/19 10:42:43;;;;;;;0.33;0.33;;;18.60;99.90;;;;;;5050633;28;20289;-81
2021/05/19 10:45:16;;;;;;;0.57;0.30;;;18.90;99.90;;;;;;5043238;28;20621;-81
2021/05/19 10:47:44;;;;;;;0.10;0.10;;;19.10;99.90;;;;;;5047167;28;20197;-80
2021/05/19 10:50:35;;;;;;;0.10;0.10;;;19.40;99.90;;;;;;5047919;28;20801;-80
2021/05/19 10:59:00;;;;;;;0.20;0.20;;;19.00;99.90;;;;;;5050106;28;20200;-81
2021/05/19 11:01:42;;;;;;;0.17;0.17;;;18.80;99.90;;;;;;5047791;28;20174;-80
2021/05/19 11:04:18;;;;;;;0.20;0.20;;;18.90;99.90;;;;;;5049927;28;20209;-81
2021/05/19 11:06:56;;;;;;;0.10;0.10;;;19.30;99.90;;;;;;5048816;28;20205;-80
2021/05/19 11:09:29;;;;;;;0.10;0.10;;;19.50;99.90;;;;;;5052491;28;20665;-80
2021/05/19 11:12:18;;;;;;;0.10;0.10;;;19.80;99.90;;;;;;5055253;28;20181;-80
2021/05/19 11:14:47;;;;;;;1.77;0.60;;;19.90;99.90;;;;;;5051742;28;20231;-80
2021/05/19 11:17:24;;;;;;;0.10;0.10;;;19.90;99.90;;;;;;5054578;28;20216;-80
2021/05/19 11:19:49;;;;;;;0.10;0.10;;;20.00;99.90;;;;;;5052241;28;20182;-80
2021/05/19 11:22:15;;;;;;;0.10;0.10;;;20.20;99.90;;;;;;5051857;28;20198;-79
2021/05/19 11:24:59;;;;;;;2.33;1.37;;;20.10;99.90;;;;;;5052745;28;20251;-80
2021/05/19 11:27:27;;;;;;;0.10;0.10;;;19.80;99.90;;;;;;5055316;28;20205;-80
2021/05/19 11:29:54;;;;;;;0.23;0.23;;;20.00;99.90;;;;;;5039559;28;20189;-79
2021/05/19 11:32:23;;;;;;;0.10;0.10;;;19.90;99.90;;;;;;5051747;28;20549;-80
2021/05/19 11:34:50;;;;;;;0.30;0.30;;;20.00;99.90;;;;;;5053054;28;20193;-79
2021/05/19 11:37:17;;;;;;;0.10;0.10;;;20.00;99.90;;;;;;5052865;28;20579;-80
2021/05/19 11:39:53;;;;;;;1.90;0.50;;;20.40;99.90;;;;;;5054555;28;20182;-80
2021/05/19 11:42:24;;;;;;;0.10;0.10;;;20.50;99.90;;;;;;5050817;28;20192;-81
2021/05/19 11:45:00;;;;;;;0.20;0.20;;;20.40;99.90;;;;;;5053442;28;20181;-80
2021/05/19 11:47:29;;;;;;;0.23;0.23;;;20.50;99.90;;;;;;5044502;28;20193;-80
2021/05/19 11:50:18;;;;;;;0.37;0.37;;;20.50;99.90;;;;;;5046243;28;20250;-80
2021/05/19 11:52:57;;;;;;;0.20;0.20;;;20.20;99.90;;;;;;5049362;28;20185;-80
2021/05/19 11:55:50;;;;;;;0.33;0.17;;;20.20;99.90;;;;;;5056020;28;20599;-80
2021/05/19 11:58:20;;;;;;;0.20;0.20;;;20.40;99.90;;;;;;5055927;28;20609;-80
2021/05/19 12:01:07;;;;;;;0.20;0.20;;;20.40;99.90;;;;;;5055408;28;20281;-80
2021/05/19 12:03:35;;;;;;;0.20;0.20;;;20.50;99.90;;;;;;5058742;28;20199;-80
2021/05/19 12:06:08;;;;;;;1.17;0.50;;;20.80;99.90;;;;;;5042964;28;20184;-80
2021/05/19 12:08:37;;;;;;;1.07;0.70;;;20.80;99.90;;;;;;5051044;28;20173;-80
2021/05/19 12:11:13;;;;;;;0.13;0.13;;;20.80;99.90;;;;;;5045902;28;20185;-79
2021/05/19 12:13:45;;;;;;;0.10;0.10;;;20.50;99.90;;;;;;5046772;28;20193;-80
2021/05/19 12:16:17;;;;;;;0.10;0.10;;;20.30;99.90;;;;;;5048638;28;20205;-79
2021/05/19 12:19:07;;;;;;;0.10;0.10;;;20.40;99.90;;;;;;5050223;28;20597;-79
2021/05/19 12:21:33;;;;;;;0.10;0.10;;;19.80;99.90;;;;;;5051448;28;20219;-80
2021/05/19 12:23:59;;;;;;;0.30;0.30;;;20.20;99.90;;;;;;5044730;28;20202;-79
2021/05/19 12:26:28;;;;;;;0.10;0.10;;;20.40;99.90;;;;;;5054106;28;20202;-84
2021/05/19 12:28:55;;;;;;;0.10;0.10;;;20.80;99.90;;;;;;5053874;28;20239;-80
2021/05/19 12:31:31;;;;;;;0.10;0.10;;;20.80;99.90;;;;;;5052096;28;20174;-80
2021/05/19 12:33:57;;;;;;;0.10;0.10;;;20.40;99.90;;;;;;5065018;28;20247;-80
2021/05/19 12:36:28;;;;;;;0.10;0.10;;;20.40;99.90;;;;;;5063072;28;20194;-81
2021/05/19 12:38:58;;;;;;;0.27;0.27;;;20.10;99.90;;;;;;5053018;28;20217;-81
2021/05/19 12:41:42;;;;;;;0.23;0.23;;;20.00;99.90;;;;;;5054962;28;20193;-80
2021/05/19 12:44:10;;;;;;;0.10;0.10;;;20.00;99.90;;;;;;5053315;28;20213;-81
2021/05/19 12:46:35;;;;;;;0.00;0.00;;;19.80;99.90;;;;;;5055072;28;20216;-80
2021/05/19 12:49:06;;;;;;;0.10;0.10;;;19.80;99.90;;;;;;5055720;28;20185;-81
2021/05/19 12:51:51;;;;;;;0.10;0.10;;;19.60;99.90;;;;;;5048481;28;20582;-81
2021/05/19 12:54:20;;;;;;;0.07;0.07;;;19.70;99.90;;;;;;5054348;28;20182;-81
2021/05/19 12:56:57;;;;;;;0.10;0.10;;;20.30;99.90;;;;;;5054857;28;20202;-81
2021/05/19 12:59:22;;;;;;;0.10;0.10;;;20.50;99.90;;;;;;5051965;28;20185;-80
2021/05/19 13:01:48;;;;;;;0.10;0.10;;;20.70;99.90;;;;;;5051414;28;20204;-81
2021/05/19 13:04:16;;;;;;;0.93;0.60;;;20.70;99.90;;;;;;5060658;28;20252;-81
2021/05/19 13:06:41;;;;;;;0.10;0.10;;;20.40;99.90;;;;;;5054592;28;20575;-81